X  Kiinni Metar Aviation säätiedot     EDDK Cologne Bonn Airport
Lämpötila
11°C Lämpötila
11°C Kastepiste
100% Kosteus



Tuuli
5 KM/T
3 MPH
1 M/S
3 KTS



140°
EI
Nykyiset olosuhteet

Kirkas Kirkas
Paine 1017.95 (hPa) - 30.06 (inHg)
Näkyvyys 6 (maili) - 9.7 (km)
Lentokenttä
Lentokentän koodi EDDK

Sijainti: Cologne Bonn Airport
Etäisyys: 56 (km)

Metar:
EDDK 252220Z AUTO 14003KT 060V210 CAVOK 11/11 Q1018 NOSIG

Aika: 2024-05-26 00:20 CEST